Time;durP1;ratioP1;P1;durP2;ratioP2;P2;SDS_P1;SDS_P2;PMS_P1;PMS_P2;Temp;Humidity;BMP_temperature;BMP_pressure;BME280_temperature;BME280_humidity;BME280_pressure;Samples;Min_cycle;Max_cycle;Signal;HPM_P1;HPM_P2
2022/12/15 00:41:05;;;;;;;49.23;28.20;;;19.20;81.30;;;;;;1868127;75;21100;-84
2022/12/15 00:43:37;;;;;;;48.20;27.65;;;19.30;81.60;;;;;;1785882;80;21995;-81
2022/12/15 00:48:57;;;;;;;43.75;28.45;;;19.30;81.20;;;;;;1844388;77;21197;-84
2022/12/15 01:22:20;;;;;;;49.03;29.05;;;19.70;79.00;;;;;;1840773;77;21144;-83
2022/12/15 01:24:51;;;;;;;41.08;27.13;;;19.80;79.00;;;;;;1842239;77;21095;-82
2022/12/15 01:27:21;;;;;;;40.43;25.62;;;19.80;78.90;;;;;;1846944;77;21581;-83
2022/12/15 01:29:52;;;;;;;41.20;25.65;;;19.90;79.00;;;;;;1848498;76;21053;-87
2022/12/15 01:32:23;;;;;;;44.38;27.20;;;19.90;77.90;;;;;;1845273;75;21049;-85
2022/12/15 01:34:54;;;;;;;46.55;27.62;;;20.00;77.70;;;;;;1851446;75;21290;-84
2022/12/15 01:37:24;;;;;;;46.63;27.15;;;20.10;77.60;;;;;;1848090;75;21215;-85
2022/12/15 01:42:43;;;;;;;43.65;26.90;;;20.10;77.20;;;;;;1842993;77;21156;-83
2022/12/15 01:45:22;;;;;;;39.38;25.15;;;20.20;77.20;;;;;;1845881;77;21092;-83
2022/12/15 01:47:58;;;;;;;42.48;25.82;;;20.20;77.10;;;;;;1839436;77;21128;-83
2022/12/15 01:50:31;;;;;;;42.43;25.15;;;20.30;76.80;;;;;;1846206;77;21269;-83
2022/12/15 01:53:03;;;;;;;47.75;26.80;;;20.40;76.20;;;;;;1829594;78;22181;-83
2022/12/15 01:55:34;;;;;;;40.12;24.90;;;20.40;75.80;;;;;;1840413;78;21138;-82
2022/12/15 01:58:07;;;;;;;43.75;26.23;;;20.50;75.30;;;;;;1839809;77;21220;-84
2022/12/15 02:00:38;;;;;;;38.90;25.15;;;20.50;75.50;;;;;;1831437;77;21073;-85
2022/12/15 02:03:11;;;;;;;39.03;26.87;;;20.60;74.90;;;;;;1837632;76;21101;-83
2022/12/15 02:05:42;;;;;;;42.43;27.02;;;20.70;75.00;;;;;;1834345;76;21116;-83
2022/12/15 02:08:13;;;;;;;56.70;26.52;;;20.70;75.20;;;;;;1833050;76;21128;-82
2022/12/15 02:11:04;;;;;;;36.65;24.60;;;20.80;74.90;;;;;;1841826;77;21642;-84
2022/12/15 02:13:43;;;;;;;40.20;25.12;;;20.80;74.30;;;;;;1841045;78;21148;-84
2022/12/15 02:16:18;;;;;;;38.70;24.35;;;20.80;73.60;;;;;;1840634;77;21184;-83
2022/12/15 02:18:54;;;;;;;38.63;24.18;;;20.90;73.90;;;;;;1776046;81;21167;-83
2022/12/15 02:21:39;;;;;;;36.38;23.95;;;20.90;73.20;;;;;;1771334;80;21606;-83
2022/12/15 02:24:28;;;;;;;39.13;23.47;;;21.00;73.30;;;;;;1839946;78;21151;-84
2022/12/15 02:27:10;;;;;;;41.37;25.95;;;21.00;73.70;;;;;;1796915;79;21222;-83
2022/12/15 02:29:52;;;;;;;36.53;24.15;;;21.10;73.30;;;;;;1837699;77;21139;-84
2022/12/15 02:32:30;;;;;;;35.83;21.42;;;21.10;72.50;;;;;;1815491;78;21261;-86
2022/12/15 02:35:03;;;;;;;36.23;22.58;;;21.30;71.60;;;;;;1829289;78;21669;-83
2022/12/15 02:37:39;;;;;;;39.92;22.22;;;21.40;71.60;;;;;;1839594;78;21254;-83
2022/12/15 02:40:11;;;;;;;33.13;22.33;;;21.40;70.90;;;;;;1846405;77;21131;-80
2022/12/15 02:42:50;;;;;;;37.00;22.60;;;21.40;70.60;;;;;;1843789;77;21202;-83
2022/12/15 02:45:23;;;;;;;37.38;24.63;;;21.50;70.70;;;;;;1837808;78;21112;-85
2022/12/15 02:48:12;;;;;;;34.88;22.87;;;21.60;70.90;;;;;;1861288;75;21135;-84
2022/12/15 02:51:02;;;;;;;38.50;23.57;;;21.60;70.90;;;;;;1867829;76;21139;-83
2022/12/15 02:53:35;;;;;;;33.02;22.52;;;21.70;70.30;;;;;;1868235;75;21155;-84
2022/12/15 02:56:39;;;;;;;33.65;22.42;;;21.70;70.70;;;;;;1838776;76;21157;-83
2022/12/15 02:59:12;;;;;;;34.75;21.55;;;21.70;70.70;;;;;;1875842;76;21205;-85
2022/12/15 03:01:58;;;;;;;33.85;22.50;;;21.80;70.40;;;;;;1881077;75;21177;-82
2022/12/15 03:04:32;;;;;;;32.60;22.35;;;21.80;69.40;;;;;;1876156;76;21151;-83
2022/12/15 03:07:07;;;;;;;36.90;23.00;;;21.90;69.00;;;;;;1877562;75;21111;-85
2022/12/15 03:09:37;;;;;;;34.43;21.05;;;21.90;69.00;;;;;;1874385;75;21128;-84
2022/12/15 03:12:09;;;;;;;33.10;20.82;;;22.00;68.80;;;;;;1869633;75;21139;-86
2022/12/15 03:14:40;;;;;;;29.65;20.15;;;22.10;68.80;;;;;;1872814;75;21166;-85
2022/12/15 03:17:10;;;;;;;32.05;19.73;;;22.20;69.20;;;;;;1872162;75;21123;-85
2022/12/15 03:19:44;;;;;;;31.60;18.12;;;22.30;67.80;;;;;;1876000;75;21183;-85
2022/12/15 03:22:17;;;;;;;30.72;20.37;;;22.30;67.50;;;;;;1879112;75;21145;-85
2022/12/15 03:24:51;;;;;;;31.87;18.85;;;22.50;66.00;;;;;;1873116;76;21146;-83
2022/12/15 03:27:23;;;;;;;28.42;18.73;;;22.50;65.90;;;;;;1871463;76;21135;-83
2022/12/15 03:29:55;;;;;;;27.75;19.37;;;22.60;65.80;;;;;;1876574;75;21504;-84
2022/12/15 03:32:25;;;;;;;30.05;19.75;;;22.60;66.00;;;;;;1875807;75;21262;-84
2022/12/15 03:34:57;;;;;;;34.00;19.92;;;22.70;64.60;;;;;;1879039;75;21143;-84
2022/12/15 03:37:34;;;;;;;31.10;19.42;;;22.80;64.50;;;;;;1884869;75;21123;-83
2022/12/15 03:40:09;;;;;;;29.67;19.40;;;22.90;64.80;;;;;;1871437;75;21194;-85
2022/12/15 03:42:47;;;;;;;30.82;21.12;;;22.90;65.90;;;;;;1890167;75;21147;-84
2022/12/15 03:45:23;;;;;;;27.77;19.25;;;23.00;64.90;;;;;;1902027;75;21127;-83
2022/12/15 03:47:55;;;;;;;30.95;19.17;;;23.10;63.70;;;;;;1859155;75;21143;-82
2022/12/15 03:50:28;;;;;;;31.00;18.62;;;23.20;63.80;;;;;;1843693;77;21123;-84
2022/12/15 03:53:02;;;;;;;31.23;17.70;;;23.30;64.40;;;;;;1841443;77;21159;-84
2022/12/15 03:55:37;;;;;;;27.55;18.57;;;23.40;63.40;;;;;;1806243;79;21123;-84
2022/12/15 03:58:11;;;;;;;28.75;18.57;;;23.50;64.80;;;;;;1792683;80;21095;-83
2022/12/15 04:00:42;;;;;;;33.38;19.30;;;23.50;63.70;;;;;;1794203;80;21161;-82
2022/12/15 04:03:13;;;;;;;26.50;19.27;;;23.70;63.30;;;;;;1794558;80;21158;-82
2022/12/15 04:05:44;;;;;;;28.42;18.65;;;23.70;61.90;;;;;;1776639;80;21146;-85
2022/12/15 04:08:16;;;;;;;29.37;18.95;;;23.80;62.20;;;;;;1814308;78;21159;-82
2022/12/15 04:10:47;;;;;;;37.10;20.25;;;23.90;62.20;;;;;;1841697;77;21112;-81
2022/12/15 04:13:17;;;;;;;27.77;18.60;;;23.90;62.30;;;;;;1842234;77;21139;-81
2022/12/15 04:15:48;;;;;;;28.75;19.48;;;24.00;61.60;;;;;;1840998;77;21136;-81
2022/12/15 04:18:19;;;;;;;31.37;19.12;;;24.00;62.00;;;;;;1847076;76;21531;-84
2022/12/15 04:20:50;;;;;;;26.85;18.55;;;24.10;62.50;;;;;;1840879;78;21152;-82
2022/12/15 04:23:23;;;;;;;28.98;19.60;;;24.20;60.00;;;;;;1841678;78;21095;-81
2022/12/15 05:34:01;;;;;;;23.65;15.00;;;25.90;55.70;;;;;;1873577;76;21123;-81
2022/12/15 05:36:33;;;;;;;22.55;15.43;;;25.90;56.10;;;;;;1881605;75;21068;-82
2022/12/15 05:39:06;;;;;;;19.87;15.13;;;26.00;56.20;;;;;;1896767;75;21148;-81
2022/12/15 05:41:38;;;;;;;24.37;16.05;;;26.10;55.40;;;;;;1874805;75;21608;-80
2022/12/15 05:44:16;;;;;;;32.05;17.17;;;26.20;55.80;;;;;;1874417;75;21206;-81
2022/12/15 05:46:48;;;;;;;22.98;15.53;;;26.30;55.10;;;;;;1868187;75;21139;-82
2022/12/15 05:49:22;;;;;;;21.75;15.43;;;26.30;54.60;;;;;;1853287;76;21124;-81
2022/12/15 05:51:53;;;;;;;21.85;16.37;;;26.30;55.10;;;;;;1841185;78;21089;-80
2022/12/15 05:54:24;;;;;;;25.50;16.05;;;26.30;54.90;;;;;;1841067;77;21422;-81
2022/12/15 05:56:58;;;;;;;23.60;15.95;;;26.40;54.70;;;;;;1835887;77;21200;-86
2022/12/15 05:59:31;;;;;;;23.05;15.45;;;26.40;54.70;;;;;;1841438;77;21114;-81
2022/12/15 06:02:02;;;;;;;22.50;14.50;;;26.30;54.00;;;;;;1821021;78;21120;-81
2022/12/15 06:04:36;;;;;;;25.40;16.30;;;26.40;55.00;;;;;;1842260;77;21219;-81
2022/12/15 06:07:08;;;;;;;20.70;15.43;;;26.40;54.70;;;;;;1843081;77;21096;-82
2022/12/15 06:09:43;;;;;;;23.05;15.98;;;26.40;54.20;;;;;;1829252;77;21174;-79
2022/12/15 06:12:15;;;;;;;21.52;15.43;;;26.50;54.30;;;;;;1841091;78;21144;-81
2022/12/15 06:14:50;;;;;;;26.35;15.95;;;26.50;54.60;;;;;;1840402;77;21122;-82
2022/12/15 06:17:19;;;;;;;25.50;15.60;;;26.50;54.30;;;;;;1843407;77;21131;-80
2022/12/15 06:19:50;;;;;;;28.45;15.80;;;26.50;54.70;;;;;;1832940;78;21068;-81
2022/12/15 06:22:21;;;;;;;23.83;15.70;;;26.60;54.70;;;;;;1814779;78;21088;-82
2022/12/15 06:24:53;;;;;;;24.72;15.85;;;26.70;54.70;;;;;;1840759;78;21148;-80
2022/12/15 06:27:28;;;;;;;21.70;14.45;;;26.70;55.10;;;;;;1847133;77;21155;-82
2022/12/15 06:30:00;;;;;;;23.50;14.55;;;26.80;55.20;;;;;;1847046;77;21178;-84
2022/12/15 06:32:37;;;;;;;22.67;15.03;;;26.80;54.70;;;;;;1842981;77;21068;-82
2022/12/15 06:35:08;;;;;;;22.62;14.85;;;26.80;53.90;;;;;;1844184;77;21098;-84
2022/12/15 06:37:39;;;;;;;29.42;15.58;;;26.90;54.40;;;;;;1831780;78;21150;-80
2022/12/15 06:40:11;;;;;;;20.17;14.65;;;26.80;53.40;;;;;;1849821;77;21142;-82
2022/12/15 06:42:41;;;;;;;23.95;15.30;;;26.80;53.80;;;;;;1839046;78;21085;-81
2022/12/15 06:45:12;;;;;;;22.22;14.78;;;26.90;54.00;;;;;;1817256;78;21587;-81
2022/12/15 06:47:44;;;;;;;22.07;15.00;;;26.90;53.90;;;;;;1848747;77;21135;-81
2022/12/15 06:50:15;;;;;;;20.48;14.33;;;26.90;53.60;;;;;;1840882;76;21155;-81
2022/12/15 06:52:46;;;;;;;22.10;13.15;;;27.00;53.70;;;;;;1840845;77;21151;-81
2022/12/15 06:55:17;;;;;;;23.40;13.38;;;27.00;54.60;;;;;;1810913;78;21513;-81
2022/12/15 06:57:49;;;;;;;22.75;14.15;;;27.00;54.90;;;;;;1841408;77;21214;-82
2022/12/15 07:00:20;;;;;;;25.88;14.15;;;27.10;54.20;;;;;;1841133;78;21130;-80
2022/12/15 07:02:50;;;;;;;20.32;13.53;;;27.10;54.00;;;;;;1842563;78;21217;-81
2022/12/15 07:05:22;;;;;;;18.23;12.90;;;27.10;53.90;;;;;;1841567;78;21191;-82
2022/12/15 07:07:59;;;;;;;18.55;13.10;;;27.10;54.40;;;;;;1842691;77;21139;-82
2022/12/15 07:10:26;;;;;;;31.65;14.55;;;27.10;53.10;;;;;;1841674;77;21612;-81
2022/12/15 07:12:57;;;;;;;22.05;13.00;;;27.10;53.30;;;;;;1840668;78;21610;-82
2022/12/15 07:15:28;;;;;;;23.50;13.55;;;27.20;54.00;;;;;;1844189;77;21406;-81
2022/12/15 07:17:59;;;;;;;18.45;11.97;;;27.10;53.80;;;;;;1841377;78;21096;-81
2022/12/15 07:20:30;;;;;;;19.75;13.95;;;27.20;53.80;;;;;;1841369;78;21213;-82
2022/12/15 07:23:08;;;;;;;21.75;12.70;;;27.20;53.20;;;;;;1841221;78;21140;-80
2022/12/15 07:25:38;;;;;;;17.75;12.70;;;27.20;53.70;;;;;;1845836;77;21198;-81
2022/12/15 07:28:11;;;;;;;19.98;13.58;;;27.20;54.10;;;;;;1828482;78;21142;-80
2022/12/15 07:30:41;;;;;;;19.73;13.32;;;27.20;52.80;;;;;;1841068;78;21070;-81
2022/12/15 07:33:12;;;;;;;22.93;14.40;;;27.10;53.20;;;;;;1840780;77;21136;-81
2022/12/15 07:35:47;;;;;;;19.12;13.10;;;27.00;53.20;;;;;;1846149;77;21185;-81
2022/12/15 07:38:18;;;;;;;19.85;12.60;;;27.10;53.50;;;;;;1840219;77;21093;-81
2022/12/15 07:40:51;;;;;;;19.30;12.78;;;27.10;53.70;;;;;;1833654;78;21252;-80
2022/12/15 07:43:24;;;;;;;22.45;13.90;;;27.10;55.10;;;;;;1840426;77;21881;-82
2022/12/15 07:45:57;;;;;;;20.20;13.28;;;27.20;54.20;;;;;;1840225;77;21552;-81
2022/12/15 07:48:29;;;;;;;22.02;13.30;;;27.10;54.10;;;;;;1840118;78;21185;-82
2022/12/15 07:51:08;;;;;;;22.35;13.60;;;27.10;53.90;;;;;;1879665;75;21130;-82
2022/12/15 07:53:40;;;;;;;17.80;12.58;;;27.10;53.20;;;;;;1828926;78;21251;-83
2022/12/15 07:56:10;;;;;;;20.32;13.25;;;27.10;54.00;;;;;;1872424;75;21136;-80
2022/12/15 07:58:41;;;;;;;19.80;14.00;;;27.10;54.00;;;;;;1873979;76;21504;-81
2022/12/15 08:01:14;;;;;;;24.90;14.50;;;27.10;53.60;;;;;;1868491;76;21162;-82
2022/12/15 08:03:45;;;;;;;20.82;12.53;;;27.00;53.20;;;;;;1865596;76;21124;-81
2022/12/15 08:06:16;;;;;;;24.05;13.35;;;27.00;53.00;;;;;;1844836;78;21615;-83
2022/12/15 08:08:48;;;;;;;18.07;12.58;;;27.00;53.40;;;;;;1864808;75;21128;-81
2022/12/15 08:11:23;;;;;;;17.80;12.45;;;27.00;53.60;;;;;;1882509;75;21424;-79
2022/12/15 08:13:57;;;;;;;23.32;13.22;;;27.00;54.20;;;;;;1859657;77;21093;-82
2022/12/15 08:16:33;;;;;;;20.05;13.20;;;27.00;53.10;;;;;;1875550;75;21116;-82
2022/12/15 08:19:05;;;;;;;19.67;12.23;;;27.00;53.80;;;;;;1876593;76;21159;-83
2022/12/15 08:21:35;;;;;;;19.35;12.33;;;27.10;53.60;;;;;;1878854;75;21568;-81
2022/12/15 08:24:07;;;;;;;18.27;11.83;;;27.10;53.40;;;;;;1875755;75;21155;-80
2022/12/15 08:26:39;;;;;;;16.50;12.23;;;27.00;53.50;;;;;;1879566;76;21183;-85
2022/12/15 08:29:12;;;;;;;19.48;11.95;;;27.00;53.90;;;;;;1878404;76;21186;-82
2022/12/15 08:31:44;;;;;;;19.37;12.07;;;27.00;53.70;;;;;;1851783;76;21158;-82
2022/12/15 08:34:19;;;;;;;19.32;12.58;;;26.90;54.00;;;;;;1820541;78;21199;-80
2022/12/15 08:36:46;;;;;;;17.20;11.70;;;26.90;54.00;;;;;;1877576;75;21088;-81
2022/12/15 08:39:19;;;;;;;18.70;12.90;;;26.90;53.80;;;;;;1858907;75;21155;-81
2022/12/15 08:41:50;;;;;;;15.00;12.10;;;26.90;53.70;;;;;;1831429;77;21207;-82
2022/12/15 08:44:21;;;;;;;22.02;14.07;;;26.90;53.60;;;;;;1875912;75;21190;-81
2022/12/15 08:46:52;;;;;;;19.23;14.58;;;26.90;54.10;;;;;;1901365;75;21138;-81
2022/12/15 08:49:23;;;;;;;20.27;12.55;;;26.90;54.00;;;;;;1908855;75;21057;-80
2022/12/15 08:52:02;;;;;;;25.88;13.08;;;26.90;53.50;;;;;;1907815;75;21196;-81
2022/12/15 08:54:34;;;;;;;17.67;12.20;;;26.90;53.90;;;;;;1895497;75;21236;-81
2022/12/15 08:57:11;;;;;;;17.75;12.25;;;26.90;54.10;;;;;;1887359;75;21151;-81
2022/12/15 08:59:38;;;;;;;17.82;12.47;;;26.90;53.80;;;;;;1874247;76;21148;-82
2022/12/15 09:02:12;;;;;;;21.85;12.58;;;26.90;54.10;;;;;;1872050;76;21234;-82
2022/12/15 09:04:45;;;;;;;18.52;11.70;;;26.80;53.90;;;;;;1877610;75;21127;-81
2022/12/15 09:07:16;;;;;;;21.85;12.93;;;26.80;54.10;;;;;;1876801;76;21126;-82
2022/12/15 09:09:50;;;;;;;22.80;12.63;;;26.80;53.90;;;;;;1887467;76;21649;-81
2022/12/15 09:12:21;;;;;;;17.57;12.37;;;26.80;53.70;;;;;;1857423;75;21156;-80
2022/12/15 09:14:52;;;;;;;19.30;12.53;;;26.80;54.00;;;;;;1851111;77;21167;-82
2022/12/15 09:17:25;;;;;;;26.97;13.03;;;26.70;54.30;;;;;;1870570;76;21092;-82
2022/12/15 09:19:57;;;;;;;22.42;13.98;;;26.70;55.10;;;;;;1841267;77;21232;-81
2022/12/15 09:22:28;;;;;;;20.15;13.18;;;26.70;54.70;;;;;;1879642;75;21905;-81
2022/12/15 09:24:59;;;;;;;18.25;12.53;;;26.80;54.60;;;;;;1870778;74;21131;-81
2022/12/15 09:27:30;;;;;;;19.82;12.78;;;26.70;54.40;;;;;;1881337;74;21177;-82
2022/12/15 09:30:01;;;;;;;17.15;12.23;;;26.70;54.50;;;;;;1888438;75;21149;-82
2022/12/15 09:32:31;;;;;;;19.82;11.95;;;26.70;54.70;;;;;;1883922;76;21537;-81
2022/12/15 09:35:04;;;;;;;21.07;13.75;;;26.60;54.80;;;;;;1876788;75;21551;-82
2022/12/15 09:37:37;;;;;;;19.77;13.25;;;26.60;54.80;;;;;;1889025;76;21126;-80
2022/12/15 09:40:12;;;;;;;21.05;13.80;;;26.60;54.80;;;;;;1890747;75;21719;-79
2022/12/15 09:42:44;;;;;;;21.12;14.25;;;26.50;55.00;;;;;;1863916;76;21106;-81
2022/12/15 09:45:28;;;;;;;18.00;12.70;;;26.50;55.00;;;;;;1846542;77;21576;-81
2022/12/15 09:48:07;;;;;;;27.22;16.82;;;26.40;54.90;;;;;;1885958;75;21139;-82
2022/12/15 09:50:43;;;;;;;38.05;16.70;;;26.40;55.10;;;;;;1870559;75;21199;-82
2022/12/15 09:53:16;;;;;;;19.55;14.03;;;26.40;55.30;;;;;;1848407;77;21166;-82
2022/12/15 09:55:54;;;;;;;23.00;13.13;;;26.40;55.30;;;;;;1860995;75;21217;-82
2022/12/15 09:59:02;;;;;;;19.55;13.15;;;26.30;55.20;;;;;;1821555;78;21652;-81
2022/12/15 10:01:44;;;;;;;23.47;13.30;;;26.30;55.30;;;;;;1895243;75;21100;-83
2022/12/15 10:04:36;;;;;;;20.80;13.22;;;26.30;55.20;;;;;;1879355;74;21176;-82
2022/12/15 10:07:11;;;;;;;19.77;13.30;;;26.30;55.60;;;;;;1879249;74;21215;-82
2022/12/15 10:09:42;;;;;;;21.57;14.00;;;26.20;55.60;;;;;;1894728;75;21271;-82
2022/12/15 10:12:21;;;;;;;22.85;14.78;;;26.20;55.60;;;;;;1876558;76;21064;-82
2022/12/15 10:14:55;;;;;;;20.68;13.75;;;26.20;55.80;;;;;;1878566;75;21217;-83
2022/12/15 10:17:28;;;;;;;18.80;13.60;;;26.10;55.90;;;;;;1880936;75;21603;-80
2022/12/15 10:20:05;;;;;;;22.05;13.78;;;26.10;55.90;;;;;;1877442;75;21262;-82
2022/12/15 10:22:37;;;;;;;21.40;15.78;;;26.10;55.90;;;;;;1844438;77;21190;-83
2022/12/15 10:25:20;;;;;;;23.47;15.08;;;26.00;56.10;;;;;;1818809;78;21165;-80
2022/12/15 10:28:12;;;;;;;24.60;15.78;;;26.00;56.40;;;;;;1877132;75;21108;-82
2022/12/15 10:30:58;;;;;;;22.00;14.87;;;26.00;56.50;;;;;;1856239;76;21166;-82
2022/12/15 10:33:38;;;;;;;21.90;15.35;;;26.00;56.40;;;;;;1858712;76;21216;-82
2022/12/15 10:36:15;;;;;;;26.97;14.55;;;25.90;56.40;;;;;;1857631;76;21099;-82
2022/12/15 10:38:54;;;;;;;22.73;14.83;;;25.90;56.50;;;;;;1859030;76;21225;-84
2022/12/15 10:41:49;;;;;;;18.82;14.55;;;25.90;56.60;;;;;;1860826;76;21230;-82
2022/12/15 10:44:28;;;;;;;21.07;14.73;;;25.80;56.70;;;;;;1857567;75;21099;-83
2022/12/15 10:47:08;;;;;;;23.77;14.85;;;25.70;56.70;;;;;;1865283;76;21103;-82
2022/12/15 10:49:38;;;;;;;22.07;14.55;;;25.70;56.80;;;;;;1861100;75;21135;-82
2022/12/15 10:52:21;;;;;;;26.90;16.25;;;25.70;57.60;;;;;;1867445;75;21198;-80
2022/12/15 10:54:54;;;;;;;21.85;14.90;;;25.70;57.30;;;;;;1788715;76;21231;-83
2022/12/15 10:57:30;;;;;;;28.10;16.10;;;25.60;58.00;;;;;;1887848;76;21192;-82
2022/12/15 11:00:08;;;;;;;;;;;25.60;57.30;;;;;;1869170;76;21591;-83
2022/12/15 11:02:40;;;;;;;31.50;15.78;;;25.60;57.50;;;;;;1849569;75;20271;-82
2022/12/15 11:05:16;;;;;;;29.50;16.70;;;25.60;57.40;;;;;;1862291;76;21607;-82
2022/12/15 11:07:58;;;;;;;27.77;16.13;;;25.60;57.70;;;;;;1834869;76;21128;-82
2022/12/15 11:13:18;;;;;;;24.85;16.27;;;25.50;58.60;;;;;;1814895;77;21149;-82
2022/12/15 11:15:55;;;;;;;24.80;16.05;;;25.50;58.30;;;;;;1851256;76;21152;-85
2022/12/15 11:18:34;;;;;;;27.32;17.23;;;25.50;58.60;;;;;;1848001;76;21384;-82
2022/12/15 11:21:26;;;;;;;33.10;18.05;;;25.40;59.50;;;;;;1854237;76;21171;-84
2022/12/15 11:24:05;;;;;;;29.25;18.20;;;25.30;60.30;;;;;;1848288;76;21199;-81
2022/12/15 11:26:47;;;;;;;28.27;18.27;;;25.20;61.10;;;;;;1851593;77;21693;-82
2022/12/15 11:29:29;;;;;;;30.02;18.57;;;25.10;61.50;;;;;;1853336;77;21157;-82
2022/12/15 11:32:00;;;;;;;32.60;19.00;;;25.00;61.70;;;;;;1860565;76;21163;-83
2022/12/15 11:34:37;;;;;;;34.38;19.15;;;25.00;61.90;;;;;;1790303;78;21618;-82
2022/12/15 11:37:11;;;;;;;29.47;18.83;;;24.90;61.70;;;;;;1849994;76;21156;-82
2022/12/15 11:40:03;;;;;;;29.52;18.95;;;24.90;61.80;;;;;;1857302;76;21136;-81
2022/12/15 11:42:55;;;;;;;30.40;17.90;;;24.90;61.90;;;;;;1862258;75;21100;-84
2022/12/15 11:45:50;;;;;;;30.57;18.37;;;24.90;61.70;;;;;;1860256;76;21081;-84
2022/12/15 11:48:28;;;;;;;32.88;18.70;;;24.80;61.60;;;;;;1859086;75;21123;-83
2022/12/15 11:51:08;;;;;;;34.33;19.77;;;24.90;61.80;;;;;;1829349;74;21239;-81
2022/12/15 11:53:47;;;;;;;31.95;19.10;;;24.80;61.80;;;;;;1872501;76;21205;-82
2022/12/15 11:56:23;;;;;;;30.12;18.87;;;24.80;61.80;;;;;;1860896;76;21226;-81
2022/12/15 11:59:21;;;;;;;32.03;19.05;;;24.80;61.80;;;;;;1873620;76;21122;-82
2022/12/15 12:02:04;;;;;;;32.00;19.20;;;24.90;61.90;;;;;;1862242;76;21163;-82
2022/12/15 12:04:52;;;;;;;29.50;19.48;;;24.80;62.20;;;;;;1838293;76;21193;-82
2022/12/15 12:07:47;;;;;;;26.85;18.55;;;24.80;62.50;;;;;;1863350;76;21127;-83
2022/12/15 12:10:36;;;;;;;30.55;19.32;;;24.80;62.70;;;;;;1857576;76;21149;-81
2022/12/15 12:13:43;;;;;;;31.07;19.87;;;24.70;63.00;;;;;;1845877;76;21236;-81
2022/12/15 12:16:30;;;;;;;37.15;20.60;;;24.70;63.00;;;;;;1861729;76;21634;-82
2022/12/15 12:19:06;;;;;;;34.27;21.25;;;24.70;63.40;;;;;;1868033;75;21117;-81
2022/12/15 12:21:48;;;;;;;36.77;21.50;;;24.60;63.50;;;;;;1851469;76;21197;-82
2022/12/15 12:24:22;;;;;;;36.77;21.48;;;24.60;63.60;;;;;;1824329;77;21155;-82
2022/12/15 12:27:00;;;;;;;34.30;20.85;;;24.60;63.80;;;;;;1832032;76;21600;-82
2022/12/15 12:29:43;;;;;;;32.75;21.10;;;24.60;63.80;;;;;;1841755;77;21174;-82
2022/12/15 12:32:18;;;;;;;34.00;20.52;;;24.50;63.80;;;;;;1816045;77;21162;-83
2022/12/15 12:35:04;;;;;;;35.88;22.13;;;24.60;63.90;;;;;;1782111;80;21086;-83
2022/12/15 12:37:51;;;;;;;46.55;30.02;;;24.50;63.80;;;;;;1854115;76;21130;-82
2022/12/15 12:40:35;;;;;;;43.13;29.23;;;24.60;63.90;;;;;;1851603;76;21095;-81
2022/12/15 12:43:07;;;;;;;37.78;24.95;;;24.60;64.10;;;;;;1859774;76;21182;-82
2022/12/15 12:45:57;;;;;;;38.45;23.12;;;24.60;64.10;;;;;;1816016;77;21125;-82
2022/12/15 12:48:37;;;;;;;30.68;21.87;;;24.50;64.10;;;;;;1854101;76;21204;-80
2022/12/15 12:51:29;;;;;;;36.65;22.15;;;24.50;64.10;;;;;;1852112;76;21724;-81
2022/12/15 12:54:03;;;;;;;33.65;23.25;;;24.50;64.10;;;;;;1862220;76;21143;-81
2022/12/15 12:56:45;;;;;;;37.38;23.00;;;24.50;64.40;;;;;;1857587;76;21178;-81
2022/12/15 12:59:39;;;;;;;39.05;23.65;;;24.50;64.40;;;;;;1858151;76;21511;-84
2022/12/15 13:02:24;;;;;;;38.73;23.55;;;24.50;64.60;;;;;;1832444;77;21143;-82
2022/12/15 13:05:04;;;;;;;34.78;23.98;;;24.50;64.60;;;;;;1855399;76;21138;-82
2022/12/15 13:07:41;;;;;;;50.65;25.05;;;24.40;64.70;;;;;;1864437;76;21223;-81
2022/12/15 13:10:19;;;;;;;44.27;25.10;;;24.40;64.80;;;;;;1860050;75;21607;-81
2022/12/15 13:12:54;;;;;;;38.53;24.10;;;24.40;64.90;;;;;;1874954;76;21170;-82
2022/12/15 13:15:30;;;;;;;40.50;24.47;;;24.40;64.90;;;;;;1829934;77;21195;-81
2022/12/15 13:18:09;;;;;;;37.75;24.87;;;24.40;64.90;;;;;;1849833;76;21209;-81
2022/12/15 13:20:44;;;;;;;36.25;24.00;;;24.40;64.80;;;;;;1849442;76;21091;-82
2022/12/15 13:23:30;;;;;;;45.38;24.77;;;24.40;65.00;;;;;;1867019;76;21550;-82
2022/12/15 13:26:03;;;;;;;39.85;24.15;;;24.40;65.20;;;;;;1861945;76;21147;-82
2022/12/15 13:28:42;;;;;;;46.65;26.87;;;24.30;65.90;;;;;;1831035;77;21153;-82
2022/12/15 13:31:19;;;;;;;48.65;26.35;;;24.30;66.70;;;;;;1778729;79;21174;-81
2022/12/15 13:33:53;;;;;;;48.50;26.57;;;24.30;67.20;;;;;;1817096;77;21206;-82
2022/12/15 13:36:41;;;;;;;47.98;26.95;;;24.30;67.30;;;;;;1856259;76;21578;-83
2022/12/15 13:39:21;;;;;;;40.92;26.77;;;24.30;67.90;;;;;;1859653;75;21154;-82
2022/12/15 13:41:56;;;;;;;40.63;26.45;;;24.20;67.90;;;;;;1862765;76;21101;-81
2022/12/15 13:44:36;;;;;;;47.30;27.62;;;24.20;68.10;;;;;;1838272;76;21567;-83
2022/12/15 13:47:22;;;;;;;46.20;26.57;;;24.20;68.00;;;;;;1854872;76;21144;-81
2022/12/15 13:50:01;;;;;;;40.12;27.10;;;24.20;68.30;;;;;;1862702;76;21682;-83
2022/12/15 13:52:40;;;;;;;51.37;28.77;;;24.10;68.40;;;;;;1853584;76;21202;-81
2022/12/15 13:55:24;;;;;;;40.95;27.40;;;24.10;68.60;;;;;;1866301;76;21091;-81
2022/12/15 13:58:02;;;;;;;43.45;28.57;;;24.10;69.20;;;;;;1854782;76;21140;-81
2022/12/15 14:00:33;;;;;;;46.85;29.60;;;24.10;68.90;;;;;;1831792;77;21097;-81
2022/12/15 14:03:09;;;;;;;51.50;29.30;;;24.10;68.70;;;;;;1772566;79;21147;-83
2022/12/15 14:05:59;;;;;;;51.45;30.23;;;24.10;68.70;;;;;;1730676;81;21243;-83
2022/12/15 14:08:34;;;;;;;43.40;27.80;;;24.10;69.70;;;;;;1722447;82;21128;-81
2022/12/15 14:11:34;;;;;;;37.15;27.85;;;24.10;69.20;;;;;;1697729;82;21279;-82
2022/12/15 14:18:43;;;;;;;44.27;28.35;;;24.00;69.40;;;;;;1672771;84;21180;-82
2022/12/15 14:21:09;;;;;;;40.98;28.83;;;24.10;69.60;;;;;;1728479;81;21162;-81
2022/12/15 14:23:43;;;;;;;43.25;27.02;;;24.00;70.00;;;;;;1734414;82;21170;-82
2022/12/15 14:26:17;;;;;;;45.90;28.73;;;24.00;69.60;;;;;;1743236;80;21164;-82
2022/12/15 14:28:53;;;;;;;48.60;29.60;;;24.00;69.70;;;;;;1739188;82;21183;-83
2022/12/15 14:31:35;;;;;;;45.40;28.55;;;24.00;70.00;;;;;;1700845;83;21254;-83
2022/12/15 14:34:25;;;;;;;43.00;28.95;;;23.90;69.70;;;;;;1736362;81;21134;-82
2022/12/15 14:36:58;;;;;;;49.33;31.17;;;24.00;70.00;;;;;;1732103;82;21217;-81
2022/12/15 14:39:38;;;;;;;43.78;29.15;;;24.00;70.30;;;;;;1733704;82;21187;-81
2022/12/15 14:42:16;;;;;;;53.73;29.85;;;23.90;70.30;;;;;;1728897;77;21192;-81
2022/12/15 14:45:00;;;;;;;47.58;28.83;;;23.90;70.80;;;;;;1844008;76;21201;-82
2022/12/15 14:47:32;;;;;;;45.20;30.12;;;23.80;70.60;;;;;;1818519;77;21162;-81
2022/12/15 14:50:06;;;;;;;49.60;32.35;;;23.80;70.40;;;;;;1795441;78;21150;-80
2022/12/15 14:52:41;;;;;;;45.75;31.57;;;23.80;70.10;;;;;;1844876;76;21199;-83
2022/12/15 14:55:35;;;;;;;44.40;29.75;;;23.80;70.00;;;;;;1823984;76;21189;-81
2022/12/15 14:58:39;;;;;;;44.50;31.93;;;23.80;70.00;;;;;;1821015;77;21768;-81
2022/12/15 15:01:30;;;;;;;44.05;30.37;;;23.80;69.70;;;;;;1822691;77;21078;-82
2022/12/15 15:04:03;;;;;;;44.25;30.27;;;23.80;69.60;;;;;;1824267;77;21197;-81
2022/12/15 15:06:41;;;;;;;50.17;30.50;;;23.80;69.60;;;;;;1758567;80;21724;-84
2022/12/15 15:09:25;;;;;;;50.15;29.48;;;23.80;69.60;;;;;;1830092;77;21187;-81
2022/12/15 15:12:05;;;;;;;47.38;28.87;;;23.80;69.50;;;;;;1819943;77;21166;-80
2022/12/15 15:14:43;;;;;;;;;;;23.70;69.50;;;;;;1836210;77;21154;-83
2022/12/15 15:17:42;;;;;;;47.23;28.02;;;23.70;69.10;;;;;;1840083;76;20190;-81
2022/12/15 15:20:10;;;;;;;;;;;23.70;69.20;;;;;;1844372;77;21386;-80
2022/12/15 15:22:44;;;;;;;45.00;29.15;;;23.70;68.90;;;;;;1823326;76;20179;-81
2022/12/15 15:25:39;;;;;;;48.65;28.83;;;23.70;69.20;;;;;;1834632;77;21211;-81
2022/12/15 15:28:19;;;;;;;42.93;29.10;;;23.70;69.10;;;;;;1835605;76;21107;-84
2022/12/15 15:30:53;;;;;;;46.63;29.32;;;23.60;69.20;;;;;;1840505;76;21110;-82
2022/12/15 15:33:26;;;;;;;45.25;28.95;;;23.60;69.30;;;;;;1845183;77;21158;-83
2022/12/15 15:36:01;;;;;;;48.52;30.52;;;23.60;69.40;;;;;;1844064;76;21134;-83
2022/12/15 15:38:36;;;;;;;50.33;30.43;;;23.60;69.40;;;;;;1831456;76;21113;-81
2022/12/15 15:41:16;;;;;;;43.23;29.92;;;23.50;69.40;;;;;;1844708;77;21074;-81
2022/12/15 15:43:47;;;;;;;46.48;30.90;;;23.50;70.50;;;;;;1832501;77;21208;-80
2022/12/15 15:46:21;;;;;;;55.55;35.90;;;23.50;69.60;;;;;;1781449;79;21175;-82